createdAt,value
2023-02-01T00:02:40.685Z,1.14
2023-02-01T00:05:37.482Z,1.07
2023-02-01T00:08:34.234Z,1.05
2023-02-01T00:11:31.311Z,1.08
2023-02-01T00:14:28.498Z,0.99
2023-02-01T00:17:25.752Z,1.03
2023-02-01T00:20:22.780Z,0.92
2023-02-01T00:23:19.725Z,0.82
2023-02-01T00:26:18.739Z,0.86
2023-02-01T00:29:20.971Z,0.97
2023-02-01T00:32:17.748Z,0.94
2023-02-01T00:35:14.547Z,1.01
2023-02-01T00:38:11.298Z,0.87
2023-02-01T00:41:11.600Z,0.85
2023-02-01T00:44:08.368Z,0.99
2023-02-01T00:47:05.096Z,0.96
2023-02-01T00:50:01.924Z,1.04
2023-02-01T00:52:58.707Z,1.25
2023-02-01T00:55:55.488Z,1.31
2023-02-01T00:58:52.293Z,1.26
2023-02-01T01:01:49.074Z,1.24
2023-02-01T01:04:45.867Z,1.29
2023-02-01T01:07:42.625Z,1.45
2023-02-01T01:10:39.468Z,1.48
2023-02-01T01:13:36.608Z,1.43
2023-02-01T01:16:34.025Z,1.50
2023-02-01T01:19:30.801Z,1.39
2023-02-01T01:22:27.540Z,1.32
2023-02-01T01:25:24.295Z,1.29
2023-02-01T01:28:21.064Z,1.29
2023-02-01T01:31:19.042Z,1.39
2023-02-01T01:34:15.831Z,1.30
2023-02-01T01:37:12.575Z,1.27
2023-02-01T01:40:10.621Z,1.19
2023-02-01T01:43:18.381Z,1.39
2023-02-01T01:46:23.537Z,1.34
2023-02-01T01:49:24.964Z,1.37
2023-02-01T01:52:21.991Z,1.36
2023-02-01T01:55:21.128Z,1.38
2023-02-01T01:58:24.612Z,1.28
2023-02-01T02:01:21.383Z,1.27
2023-02-01T02:04:18.584Z,1.32
2023-02-01T02:07:26.747Z,1.25
2023-02-01T02:10:43.507Z,1.24
2023-02-01T02:13:42.473Z,1.21
2023-02-01T02:17:01.097Z,1.26
2023-02-01T02:20:22.292Z,1.28
2023-02-01T02:23:37.736Z,1.28
2023-02-01T02:26:40.120Z,1.28
2023-02-01T02:29:57.247Z,1.14
2023-02-01T02:33:19.970Z,1.11
2023-02-01T02:36:16.662Z,0.96
2023-02-01T02:39:43.274Z,0.87
2023-02-01T02:43:16.963Z,0.82
2023-02-01T02:46:48.615Z,0.82
2023-02-01T02:50:13.314Z,0.87
2023-02-01T02:53:42.739Z,0.87
2023-02-01T02:56:59.124Z,0.90
2023-02-01T03:00:17.046Z,0.97
2023-02-01T03:03:32.582Z,1.01
2023-02-01T03:06:29.363Z,1.01
2023-02-01T03:09:35.056Z,1.04
2023-02-01T03:12:53.289Z,1.03
2023-02-01T03:16:27.606Z,1.07
2023-02-01T03:19:44.738Z,1.11
2023-02-01T03:22:42.327Z,1.17
2023-02-01T03:25:39.323Z,1.21
2023-02-01T03:28:37.530Z,1.22
2023-02-01T03:31:34.443Z,1.25
2023-02-01T03:34:31.231Z,1.18
2023-02-01T03:37:28.814Z,1.25
2023-02-01T03:40:26.835Z,1.26
2023-02-01T03:43:25.735Z,1.22
2023-02-01T03:46:33.999Z,1.22
2023-02-01T03:49:37.446Z,1.18
2023-02-01T03:52:42.163Z,1.29
2023-02-01T03:55:39.101Z,1.26
2023-02-01T03:58:36.448Z,1.25
2023-02-01T04:01:33.255Z,1.26
2023-02-01T04:04:30.025Z,1.35
2023-02-01T04:07:26.749Z,1.39
2023-02-01T04:10:24.253Z,1.39
2023-02-01T04:13:21.266Z,1.42
2023-02-01T04:16:18.029Z,1.35
2023-02-01T04:19:14.779Z,1.26
2023-02-01T04:22:13.167Z,1.23
2023-02-01T04:25:10.108Z,1.30
2023-02-01T04:28:07.944Z,1.32
2023-02-01T04:31:04.885Z,1.29
2023-02-01T04:34:01.682Z,1.20
2023-02-01T04:36:58.421Z,1.00
2023-02-01T04:39:55.371Z,1.05
2023-02-01T04:42:52.180Z,1.09
2023-02-01T04:45:50.044Z,1.07
2023-02-01T04:48:46.829Z,1.09
2023-02-01T04:51:43.606Z,1.11
2023-02-01T04:54:40.342Z,1.12
2023-02-01T04:57:39.655Z,1.14
2023-02-01T05:00:36.980Z,1.12
2023-02-01T05:03:34.521Z,1.15
2023-02-01T05:06:31.291Z,1.19
2023-02-01T05:09:28.034Z,1.11
2023-02-01T05:12:43.754Z,1.11
2023-02-01T05:15:40.644Z,1.16
2023-02-01T05:18:37.450Z,1.20
2023-02-01T05:21:34.198Z,1.18
2023-02-01T05:24:30.974Z,1.09
2023-02-01T05:27:30.488Z,1.12
2023-02-01T05:30:27.240Z,1.16
2023-02-01T05:33:24.047Z,1.16
2023-02-01T05:36:20.815Z,1.18
2023-02-01T05:39:17.601Z,1.14
2023-02-01T05:42:14.341Z,1.13
2023-02-01T05:45:11.781Z,1.10
2023-02-01T05:48:08.538Z,1.12
2023-02-01T05:51:05.370Z,1.13
2023-02-01T05:54:02.113Z,1.16
2023-02-01T05:56:58.924Z,1.16
2023-02-01T05:59:55.677Z,1.18
2023-02-01T06:02:52.554Z,1.14
2023-02-01T06:05:49.303Z,1.32
2023-02-01T06:08:46.620Z,1.33
2023-02-01T06:11:43.386Z,1.41
2023-02-01T06:14:40.219Z,1.48
2023-02-01T06:17:36.955Z,1.47
2023-02-01T06:20:33.697Z,1.41
2023-02-01T06:23:31.224Z,1.39
2023-02-01T06:26:29.576Z,1.52
2023-02-01T06:29:27.645Z,1.53
2023-02-01T06:32:24.607Z,1.56
2023-02-01T06:35:21.440Z,1.59
2023-02-01T06:38:18.277Z,1.50
2023-02-01T06:41:15.557Z,1.58
2023-02-01T06:44:12.323Z,1.61
2023-02-01T06:47:09.426Z,1.62
2023-02-01T06:50:06.721Z,1.61
2023-02-01T06:53:03.579Z,1.61
2023-02-01T06:56:03.083Z,1.63
2023-02-01T06:58:59.839Z,1.57
2023-02-01T07:01:56.631Z,1.60
2023-02-01T07:04:53.401Z,1.58
2023-02-01T07:07:50.169Z,1.60
2023-02-01T07:10:46.903Z,1.56
2023-02-01T07:13:43.729Z,1.61
2023-02-01T07:16:40.505Z,1.60
2023-02-01T07:19:37.664Z,1.57
2023-02-01T07:22:34.784Z,1.63
2023-02-01T07:25:31.536Z,1.62
2023-02-01T07:28:30.682Z,1.66
2023-02-01T07:31:29.873Z,1.58
2023-02-01T07:34:26.843Z,1.67
2023-02-01T07:37:24.941Z,1.65
2023-02-01T07:40:26.064Z,1.67
2023-02-01T07:43:22.814Z,1.78
2023-02-01T07:46:19.601Z,1.71
2023-02-01T07:49:18.243Z,1.63
2023-02-01T07:52:18.291Z,1.67
2023-02-01T07:55:15.282Z,1.69
2023-02-01T07:58:12.049Z,1.75
2023-02-01T08:01:21.424Z,1.74
2023-02-01T08:04:18.600Z,1.70
2023-02-01T08:07:15.337Z,1.78
2023-02-01T08:10:12.523Z,1.70
2023-02-01T08:13:09.393Z,1.76
2023-02-01T08:16:08.184Z,1.76
2023-02-01T08:19:05.060Z,1.74
2023-02-01T08:22:07.124Z,1.82
2023-02-01T08:25:04.174Z,1.93
2023-02-01T08:28:00.954Z,1.82
2023-02-01T08:30:57.742Z,1.92
2023-02-01T08:33:57.436Z,2.02
2023-02-01T08:36:58.517Z,1.96
2023-02-01T08:39:55.318Z,1.98
2023-02-01T08:42:52.434Z,1.92
2023-02-01T08:45:49.788Z,2.00
2023-02-01T08:48:47.571Z,1.90
2023-02-01T08:51:44.349Z,1.99
2023-02-01T08:54:42.866Z,1.89
2023-02-01T08:57:40.331Z,2.02
2023-02-01T09:00:37.607Z,2.02
2023-02-01T09:03:34.808Z,2.07
2023-02-01T09:06:31.993Z,2.05
2023-02-01T09:09:29.277Z,2.07
2023-02-01T09:12:26.044Z,2.13
2023-02-01T09:15:22.793Z,2.20
2023-02-01T09:18:19.531Z,2.13
2023-02-01T09:21:16.261Z,2.25
2023-02-01T09:24:13.725Z,2.22
2023-02-01T09:27:10.570Z,2.20
2023-02-01T09:30:08.073Z,2.35
2023-02-01T09:33:05.220Z,2.21
2023-02-01T09:36:04.885Z,2.21
2023-02-01T09:39:02.132Z,2.16
2023-02-01T09:42:15.115Z,2.22
2023-02-01T09:45:25.627Z,1.89
2023-02-01T09:48:30.282Z,1.96
2023-02-01T09:51:37.882Z,1.98
2023-02-01T09:54:54.916Z,2.02
2023-02-01T09:58:01.954Z,2.15
2023-02-01T10:01:00.779Z,2.07
2023-02-01T10:04:09.952Z,2.08
2023-02-01T10:07:44.559Z,2.14
2023-02-01T10:10:48.567Z,2.20
2023-02-01T10:14:07.930Z,2.23
2023-02-01T10:17:26.359Z,2.37
2023-02-01T10:20:56.972Z,2.40
2023-02-01T10:24:17.756Z,2.40
2023-02-01T10:27:23.576Z,2.44
2023-02-01T10:30:23.607Z,2.45
2023-02-01T10:33:33.172Z,2.59
2023-02-01T10:36:33.771Z,2.55
2023-02-01T10:39:30.522Z,2.59
2023-02-01T10:42:29.527Z,2.55
2023-02-01T10:45:29.839Z,2.59
2023-02-01T10:48:26.864Z,2.52
2023-02-01T10:51:27.523Z,2.52
2023-02-01T10:54:35.714Z,2.44
2023-02-01T10:57:32.874Z,2.51
2023-02-01T11:00:39.063Z,2.47
2023-02-01T11:03:53.784Z,2.48
2023-02-01T11:07:08.622Z,2.55
2023-02-01T11:10:06.304Z,2.47
2023-02-01T11:13:04.978Z,2.59
2023-02-01T11:16:02.706Z,2.70
2023-02-01T11:18:59.976Z,2.72
2023-02-01T11:21:59.500Z,2.76
2023-02-01T11:24:56.920Z,2.71
2023-02-01T11:27:57.636Z,2.49
2023-02-01T11:30:57.085Z,2.30
2023-02-01T11:33:58.946Z,2.33
2023-02-01T11:36:59.365Z,2.32
2023-02-01T11:40:01.392Z,2.37
2023-02-01T11:43:00.470Z,2.28
2023-02-01T11:46:02.579Z,2.37
2023-02-01T11:49:35.146Z,2.37
2023-02-01T11:53:09.612Z,2.32
2023-02-01T11:56:26.762Z,2.20
2023-02-01T11:59:23.595Z,2.15
2023-02-01T12:02:47.011Z,2.25
2023-02-01T12:06:21.302Z,2.19
2023-02-01T12:09:40.986Z,2.27
2023-02-01T12:13:06.749Z,2.27
2023-02-01T12:16:24.678Z,2.32
2023-02-01T12:19:27.872Z,2.22
2023-02-01T12:22:43.471Z,2.23
2023-02-01T12:26:04.854Z,2.19
2023-02-01T12:29:11.519Z,2.22
2023-02-01T12:32:35.778Z,2.20
2023-02-01T12:35:56.972Z,2.27
2023-02-01T12:39:09.759Z,2.27
2023-02-01T12:42:21.321Z,2.28
2023-02-01T12:45:37.937Z,2.37
2023-02-01T12:48:42.965Z,2.25
2023-02-01T12:51:42.950Z,2.37
2023-02-01T12:54:56.718Z,2.41
2023-02-01T12:58:14.272Z,2.45
2023-02-01T13:01:18.524Z,2.55
2023-02-01T13:04:29.243Z,2.56
2023-02-01T13:07:40.753Z,2.48
2023-02-01T13:10:59.503Z,2.48
2023-02-01T13:14:00.130Z,2.47
2023-02-01T13:17:06.419Z,2.56
2023-02-01T13:20:28.239Z,2.58
2023-02-01T13:23:31.286Z,2.57
2023-02-01T13:26:28.054Z,2.61
2023-02-01T13:29:25.953Z,2.46
2023-02-01T13:33:52.752Z,2.62
2023-02-01T13:36:24.175Z,2.65
2023-02-01T13:39:53.774Z,2.72
2023-02-01T13:42:56.558Z,2.66
2023-02-01T13:45:57.500Z,2.77
2023-02-01T13:49:01.236Z,2.57
2023-02-01T13:51:59.501Z,2.64
2023-02-01T13:55:21.495Z,2.62
2023-02-01T13:58:36.705Z,2.74
2023-02-01T14:01:35.747Z,2.74
2023-02-01T14:04:50.584Z,2.64
2023-02-01T14:08:05.273Z,2.64
2023-02-01T14:11:02.016Z,2.70
2023-02-01T14:14:08.368Z,2.68
2023-02-01T14:17:11.379Z,2.77
2023-02-01T14:20:44.999Z,2.63
2023-02-01T14:23:59.065Z,2.72
2023-02-01T14:27:00.517Z,2.65
2023-02-01T14:30:08.577Z,2.66
2023-02-01T14:33:27.772Z,2.87
2023-02-01T14:36:24.940Z,2.84
2023-02-01T14:39:27.312Z,2.69
2023-02-01T14:42:46.925Z,2.75
2023-02-01T14:45:51.158Z,2.59
2023-02-01T14:48:48.297Z,2.67
2023-02-01T14:51:45.264Z,2.61
2023-02-01T14:54:42.188Z,2.70
2023-02-01T14:57:41.068Z,2.62
2023-02-01T15:00:38.543Z,2.63
2023-02-01T15:03:48.413Z,2.64
2023-02-01T15:06:47.992Z,2.55
2023-02-01T15:09:47.554Z,2.61
2023-02-01T15:12:49.266Z,2.46
2023-02-01T15:15:46.137Z,2.55
2023-02-01T15:18:42.989Z,2.50
2023-02-01T15:21:48.540Z,2.46
2023-02-01T15:24:52.816Z,2.46
2023-02-01T15:27:49.942Z,2.56
2023-02-01T15:30:59.207Z,2.59
2023-02-01T15:33:59.038Z,2.44
2023-02-01T15:37:05.377Z,2.51
2023-02-01T15:40:11.457Z,2.45
2023-02-01T15:43:13.048Z,2.53
2023-02-01T15:46:13.537Z,2.54
2023-02-01T15:49:41.459Z,2.60
2023-02-01T15:52:40.658Z,2.55
2023-02-01T15:55:42.103Z,2.44
2023-02-01T15:58:43.479Z,2.59
2023-02-01T16:01:42.886Z,2.63
2023-02-01T16:04:48.044Z,2.51
2023-02-01T16:07:56.429Z,2.71
2023-02-01T16:11:16.448Z,2.56
2023-02-01T16:14:13.188Z,2.68
2023-02-01T16:17:10.725Z,2.75
2023-02-01T16:20:08.010Z,2.74
2023-02-01T16:23:05.043Z,2.70
2023-02-01T16:26:02.164Z,2.70
2023-02-01T16:28:59.689Z,2.55
2023-02-01T16:31:56.431Z,2.66
2023-02-01T16:34:54.372Z,2.63
2023-02-01T16:37:51.135Z,2.51
2023-02-01T16:40:48.441Z,2.45
2023-02-01T16:43:45.554Z,2.51
2023-02-01T16:46:47.417Z,2.60
2023-02-01T16:49:44.939Z,2.34
2023-02-01T16:52:42.250Z,2.20
2023-02-01T16:55:39.000Z,2.18
2023-02-01T16:58:35.972Z,2.14
2023-02-01T17:01:32.731Z,2.27
2023-02-01T17:04:29.577Z,2.27
2023-02-01T17:07:27.532Z,2.21
2023-02-01T17:10:34.492Z,2.20
2023-02-01T17:13:32.001Z,2.21
2023-02-01T17:16:30.275Z,2.31
2023-02-01T17:19:27.243Z,2.24
2023-02-01T17:22:24.329Z,2.17
2023-02-01T17:25:22.671Z,2.25
2023-02-01T17:28:19.631Z,2.39
2023-02-01T17:31:17.278Z,2.38
2023-02-01T17:34:19.081Z,2.33
2023-02-01T17:37:26.883Z,2.35
2023-02-01T17:40:24.556Z,2.21
2023-02-01T17:43:23.629Z,2.22
2023-02-01T17:46:21.123Z,2.27
2023-02-01T17:49:17.937Z,2.30
2023-02-01T17:52:17.450Z,2.31
2023-02-01T17:55:23.368Z,2.35
2023-02-01T17:58:21.526Z,2.42
2023-02-01T18:01:21.188Z,2.49
2023-02-01T18:04:19.963Z,2.57
2023-02-01T18:07:16.853Z,2.57
2023-02-01T18:10:13.666Z,2.74
2023-02-01T18:13:12.287Z,2.69
2023-02-01T18:16:24.635Z,2.83
2023-02-01T18:19:21.444Z,2.74
2023-02-01T18:22:20.683Z,2.77
2023-02-01T18:25:22.438Z,2.78
2023-02-01T18:28:20.583Z,2.70
2023-02-01T18:31:22.549Z,2.66
2023-02-01T18:34:22.546Z,2.59
2023-02-01T18:37:19.392Z,2.67
2023-02-01T18:40:18.757Z,2.71
2023-02-01T18:43:15.861Z,2.74
2023-02-01T18:46:13.005Z,2.77
2023-02-01T18:49:12.202Z,2.70
2023-02-01T18:52:12.284Z,2.80
2023-02-01T18:55:09.843Z,2.82
2023-02-01T18:58:07.034Z,2.86
2023-02-01T19:01:14.218Z,2.78
2023-02-01T19:04:18.629Z,2.87
2023-02-01T19:07:19.013Z,2.83
2023-02-01T19:10:18.459Z,2.81
2023-02-01T19:13:15.411Z,2.63
2023-02-01T19:16:13.641Z,2.37
2023-02-01T19:19:10.439Z,2.62
2023-02-01T19:22:07.215Z,2.27
2023-02-01T19:25:04.227Z,2.05
2023-02-01T19:28:00.970Z,2.04
2023-02-01T19:31:05.250Z,2.09
2023-02-01T19:34:02.126Z,1.99
2023-02-01T19:36:58.898Z,1.97
2023-02-01T19:39:55.775Z,2.01
2023-02-01T19:42:53.329Z,1.99
2023-02-01T19:45:50.545Z,1.91
2023-02-01T19:48:47.786Z,1.84
2023-02-01T19:51:45.032Z,1.95
2023-02-01T19:54:43.620Z,1.87
2023-02-01T19:57:40.515Z,1.71
2023-02-01T20:00:36.473Z,1.67
2023-02-01T20:03:33.258Z,1.51
2023-02-01T20:06:31.128Z,1.45
2023-02-01T20:09:28.854Z,1.12
2023-02-01T20:12:25.603Z,0.98
2023-02-01T20:15:24.815Z,0.83
2023-02-01T20:18:21.797Z,0.84
2023-02-01T20:21:18.842Z,0.85
2023-02-01T20:24:17.310Z,1.01
2023-02-01T20:27:14.922Z,1.08
2023-02-01T20:30:14.051Z,1.02
2023-02-01T20:33:10.830Z,1.13
2023-02-01T20:36:08.156Z,1.24
2023-02-01T20:39:05.754Z,1.10
2023-02-01T20:42:02.494Z,1.15
2023-02-01T20:44:59.245Z,1.18
2023-02-01T20:47:55.988Z,1.18
2023-02-01T20:50:54.900Z,1.24
2023-02-01T20:53:53.655Z,1.19
2023-02-01T20:56:51.023Z,1.22
2023-02-01T20:59:49.242Z,1.33
2023-02-01T21:02:45.992Z,1.31
2023-02-01T21:05:51.440Z,1.13
2023-02-01T21:08:48.181Z,1.12
2023-02-01T21:11:45.495Z,1.12
2023-02-01T21:14:42.233Z,1.05
2023-02-01T21:17:39.931Z,0.97
2023-02-01T21:20:36.683Z,1.00
2023-02-01T21:23:33.791Z,0.88
2023-02-01T21:26:40.840Z,0.89
2023-02-01T21:29:37.883Z,0.97
2023-02-01T21:32:35.313Z,1.09
2023-02-01T21:35:32.145Z,1.14
2023-02-01T21:38:29.600Z,1.11
2023-02-01T21:41:44.963Z,1.17
2023-02-01T21:44:41.889Z,1.26
2023-02-01T21:47:39.013Z,1.28
2023-02-01T21:50:36.104Z,1.24
2023-02-01T21:53:32.875Z,1.32
2023-02-01T21:56:29.651Z,1.25
2023-02-01T21:59:26.386Z,1.36
2023-02-01T22:02:23.203Z,1.37
2023-02-01T22:05:20.896Z,1.34
2023-02-01T22:08:17.829Z,1.37
2023-02-01T22:11:14.543Z,1.36
2023-02-01T22:14:12.192Z,1.46
2023-02-01T22:17:08.934Z,1.45
2023-02-01T22:20:06.057Z,1.36
2023-02-01T22:23:03.391Z,1.42
2023-02-01T22:26:01.437Z,1.28
2023-02-01T22:28:58.193Z,1.31
2023-02-01T22:31:55.056Z,1.42
2023-02-01T22:34:51.857Z,1.37
2023-02-01T22:37:48.641Z,1.36
2023-02-01T22:40:45.689Z,1.24
2023-02-01T22:43:42.496Z,1.35
2023-02-01T22:46:40.085Z,1.41
2023-02-01T22:49:36.887Z,1.35
2023-02-01T22:52:33.641Z,1.37
2023-02-01T22:55:31.530Z,1.38
2023-02-01T22:58:28.379Z,1.35
2023-02-01T23:01:25.165Z,1.37
2023-02-01T23:04:21.920Z,1.29
2023-02-01T23:07:18.688Z,1.35
2023-02-01T23:10:20.039Z,1.34
2023-02-01T23:13:16.767Z,1.35
2023-02-01T23:16:14.239Z,1.38
2023-02-01T23:19:11.411Z,1.35
2023-02-01T23:22:08.134Z,1.39
2023-02-01T23:25:05.222Z,1.35
2023-02-01T23:28:01.967Z,1.39
2023-02-01T23:30:58.924Z,1.37
2023-02-01T23:33:56.684Z,1.32
2023-02-01T23:36:53.418Z,1.34
2023-02-01T23:39:51.781Z,1.35
2023-02-01T23:43:08.482Z,1.36
2023-02-01T23:46:05.253Z,1.37
2023-02-01T23:49:03.760Z,1.30
2023-02-01T23:52:00.496Z,1.38
2023-02-01T23:54:57.250Z,1.37
2023-02-01T23:57:53.985Z,1.22
